sensor_id;sensor_type;location;lat;lon;timestamp;P1;durP1;ratioP1;P2;durP2;ratioP2
54171;SDS011;40076;52.354;4.970;2024-02-16T00:01:30;6.53;;;2.80;;
54171;SDS011;40076;52.354;4.970;2024-02-16T00:03:56;4.97;;;2.65;;
54171;SDS011;40076;52.354;4.970;2024-02-16T00:06:24;6.05;;;2.53;;
54171;SDS011;40076;52.354;4.970;2024-02-16T00:08:49;7.45;;;2.75;;
54171;SDS011;40076;52.354;4.970;2024-02-16T00:11:15;4.68;;;2.60;;
54171;SDS011;40076;52.354;4.970;2024-02-16T00:13:40;7.78;;;2.70;;
54171;SDS011;40076;52.354;4.970;2024-02-16T00:16:06;10.18;;;2.80;;
54171;SDS011;40076;52.354;4.970;2024-02-16T00:18:31;5.20;;;2.70;;
54171;SDS011;40076;52.354;4.970;2024-02-16T00:20:56;8.20;;;3.08;;
54171;SDS011;40076;52.354;4.970;2024-02-16T00:23:22;7.25;;;2.70;;
54171;SDS011;40076;52.354;4.970;2024-02-16T00:25:49;7.60;;;3.13;;
54171;SDS011;40076;52.354;4.970;2024-02-16T00:28:16;7.25;;;2.70;;
54171;SDS011;40076;52.354;4.970;2024-02-16T00:30:42;6.32;;;2.53;;
54171;SDS011;40076;52.354;4.970;2024-02-16T00:33:07;7.97;;;2.92;;
54171;SDS011;40076;52.354;4.970;2024-02-16T00:35:32;5.60;;;2.47;;
54171;SDS011;40076;52.354;4.970;2024-02-16T00:37:59;5.53;;;2.80;;
54171;SDS011;40076;52.354;4.970;2024-02-16T00:40:24;4.53;;;2.80;;
54171;SDS011;40076;52.354;4.970;2024-02-16T00:42:51;4.95;;;2.88;;
54171;SDS011;40076;52.354;4.970;2024-02-16T00:45:17;4.22;;;2.67;;
54171;SDS011;40076;52.354;4.970;2024-02-16T00:47:42;6.45;;;3.20;;
54171;SDS011;40076;52.354;4.970;2024-02-16T00:50:10;7.07;;;2.72;;
54171;SDS011;40076;52.354;4.970;2024-02-16T00:52:35;9.88;;;3.17;;
54171;SDS011;40076;52.354;4.970;2024-02-16T00:55:04;5.13;;;2.83;;
54171;SDS011;40076;52.354;4.970;2024-02-16T00:57:29;5.47;;;2.70;;
54171;SDS011;40076;52.354;4.970;2024-02-16T00:59:55;5.00;;;2.42;;
54171;SDS011;40076;52.354;4.970;2024-02-16T01:02:23;6.95;;;3.20;;
54171;SDS011;40076;52.354;4.970;2024-02-16T01:04:49;7.97;;;3.53;;
54171;SDS011;40076;52.354;4.970;2024-02-16T01:07:15;5.55;;;3.00;;
54171;SDS011;40076;52.354;4.970;2024-02-16T01:09:40;7.63;;;2.65;;
54171;SDS011;40076;52.354;4.970;2024-02-16T01:12:06;7.13;;;2.80;;
54171;SDS011;40076;52.354;4.970;2024-02-16T01:14:31;5.35;;;2.65;;
54171;SDS011;40076;52.354;4.970;2024-02-16T01:16:59;6.00;;;2.90;;
54171;SDS011;40076;52.354;4.970;2024-02-16T01:19:24;6.85;;;2.97;;
54171;SDS011;40076;52.354;4.970;2024-02-16T01:21:50;9.55;;;3.15;;
54171;SDS011;40076;52.354;4.970;2024-02-16T01:24:18;7.50;;;3.05;;
54171;SDS011;40076;52.354;4.970;2024-02-16T01:26:44;7.63;;;3.50;;
54171;SDS011;40076;52.354;4.970;2024-02-16T01:29:10;5.30;;;2.70;;
54171;SDS011;40076;52.354;4.970;2024-02-16T01:31:36;12.85;;;3.28;;
54171;SDS011;40076;52.354;4.970;2024-02-16T01:34:01;5.00;;;2.90;;
54171;SDS011;40076;52.354;4.970;2024-02-16T01:36:27;7.05;;;2.85;;
54171;SDS011;40076;52.354;4.970;2024-02-16T01:38:52;6.95;;;3.05;;
54171;SDS011;40076;52.354;4.970;2024-02-16T01:41:18;5.05;;;2.90;;
54171;SDS011;40076;52.354;4.970;2024-02-16T01:43:43;8.15;;;3.03;;
54171;SDS011;40076;52.354;4.970;2024-02-16T01:46:08;5.00;;;2.78;;
54171;SDS011;40076;52.354;4.970;2024-02-16T01:48:34;6.35;;;2.65;;
54171;SDS011;40076;52.354;4.970;2024-02-16T01:50:59;6.88;;;3.00;;
54171;SDS011;40076;52.354;4.970;2024-02-16T01:53:27;6.03;;;3.08;;
54171;SDS011;40076;52.354;4.970;2024-02-16T01:55:53;7.95;;;3.25;;
54171;SDS011;40076;52.354;4.970;2024-02-16T01:58:19;5.93;;;3.42;;
54171;SDS011;40076;52.354;4.970;2024-02-16T02:00:44;8.52;;;3.13;;
54171;SDS011;40076;52.354;4.970;2024-02-16T02:03:09;6.78;;;2.88;;
54171;SDS011;40076;52.354;4.970;2024-02-16T02:05:43;5.75;;;2.72;;
54171;SDS011;40076;52.354;4.970;2024-02-16T02:08:11;5.88;;;2.97;;
54171;SDS011;40076;52.354;4.970;2024-02-16T02:10:38;5.00;;;2.55;;
54171;SDS011;40076;52.354;4.970;2024-02-16T02:13:03;4.22;;;2.63;;
54171;SDS011;40076;52.354;4.970;2024-02-16T02:15:28;6.95;;;3.08;;
54171;SDS011;40076;52.354;4.970;2024-02-16T02:17:54;5.32;;;2.92;;
54171;SDS011;40076;52.354;4.970;2024-02-16T02:20:19;5.10;;;3.13;;
54171;SDS011;40076;52.354;4.970;2024-02-16T02:22:45;5.95;;;2.97;;
54171;SDS011;40076;52.354;4.970;2024-02-16T02:25:10;6.80;;;3.03;;
54171;SDS011;40076;52.354;4.970;2024-02-16T02:27:36;5.97;;;2.90;;
54171;SDS011;40076;52.354;4.970;2024-02-16T02:30:03;6.80;;;3.15;;
54171;SDS011;40076;52.354;4.970;2024-02-16T02:32:30;6.65;;;2.97;;
54171;SDS011;40076;52.354;4.970;2024-02-16T02:34:55;5.85;;;3.08;;
54171;SDS011;40076;52.354;4.970;2024-02-16T02:37:21;6.18;;;3.45;;
54171;SDS011;40076;52.354;4.970;2024-02-16T02:39:46;7.55;;;3.28;;
54171;SDS011;40076;52.354;4.970;2024-02-16T02:42:14;5.68;;;3.03;;
54171;SDS011;40076;52.354;4.970;2024-02-16T02:44:39;5.72;;;3.15;;
54171;SDS011;40076;52.354;4.970;2024-02-16T02:47:05;7.57;;;3.40;;
54171;SDS011;40076;52.354;4.970;2024-02-16T02:49:33;4.72;;;3.00;;
54171;SDS011;40076;52.354;4.970;2024-02-16T02:51:59;5.97;;;2.92;;
54171;SDS011;40076;52.354;4.970;2024-02-16T02:54:25;5.18;;;2.85;;
54171;SDS011;40076;52.354;4.970;2024-02-16T02:56:50;7.38;;;3.00;;
54171;SDS011;40076;52.354;4.970;2024-02-16T02:59:16;7.00;;;3.42;;
54171;SDS011;40076;52.354;4.970;2024-02-16T03:01:41;4.93;;;3.13;;
54171;SDS011;40076;52.354;4.970;2024-02-16T03:04:09;7.03;;;2.88;;
54171;SDS011;40076;52.354;4.970;2024-02-16T03:06:35;7.85;;;3.25;;
54171;SDS011;40076;52.354;4.970;2024-02-16T03:09:00;6.57;;;3.03;;
54171;SDS011;40076;52.354;4.970;2024-02-16T03:11:28;7.82;;;3.15;;
54171;SDS011;40076;52.354;4.970;2024-02-16T03:13:53;6.45;;;3.33;;
54171;SDS011;40076;52.354;4.970;2024-02-16T03:16:19;8.13;;;3.05;;
54171;SDS011;40076;52.354;4.970;2024-02-16T03:18:44;4.95;;;2.92;;
54171;SDS011;40076;52.354;4.970;2024-02-16T03:21:12;6.03;;;2.95;;
54171;SDS011;40076;52.354;4.970;2024-02-16T03:23:41;7.40;;;2.97;;
54171;SDS011;40076;52.354;4.970;2024-02-16T03:26:13;5.88;;;3.10;;
54171;SDS011;40076;52.354;4.970;2024-02-16T03:28:39;6.77;;;3.13;;
54171;SDS011;40076;52.354;4.970;2024-02-16T03:31:05;6.38;;;3.08;;
54171;SDS011;40076;52.354;4.970;2024-02-16T03:33:30;5.72;;;3.13;;
54171;SDS011;40076;52.354;4.970;2024-02-16T03:35:55;6.25;;;2.97;;
54171;SDS011;40076;52.354;4.970;2024-02-16T03:38:21;7.88;;;3.50;;
54171;SDS011;40076;52.354;4.970;2024-02-16T03:40:47;7.00;;;3.40;;
54171;SDS011;40076;52.354;4.970;2024-02-16T03:43:12;5.50;;;3.00;;
54171;SDS011;40076;52.354;4.970;2024-02-16T03:45:40;6.50;;;3.08;;
54171;SDS011;40076;52.354;4.970;2024-02-16T03:48:05;4.88;;;2.95;;
54171;SDS011;40076;52.354;4.970;2024-02-16T03:50:31;6.88;;;2.80;;
54171;SDS011;40076;52.354;4.970;2024-02-16T03:52:56;5.55;;;3.13;;
54171;SDS011;40076;52.354;4.970;2024-02-16T03:55:22;7.22;;;3.33;;
54171;SDS011;40076;52.354;4.970;2024-02-16T03:57:47;7.28;;;2.97;;
54171;SDS011;40076;52.354;4.970;2024-02-16T04:00:12;7.18;;;3.25;;
54171;SDS011;40076;52.354;4.970;2024-02-16T04:02:41;5.72;;;2.80;;
54171;SDS011;40076;52.354;4.970;2024-02-16T04:05:07;5.07;;;2.85;;
54171;SDS011;40076;52.354;4.970;2024-02-16T04:07:32;8.70;;;3.20;;
54171;SDS011;40076;52.354;4.970;2024-02-16T04:09:59;4.95;;;2.60;;
54171;SDS011;40076;52.354;4.970;2024-02-16T04:12:25;6.82;;;3.55;;
54171;SDS011;40076;52.354;4.970;2024-02-16T04:14:50;5.28;;;2.85;;
54171;SDS011;40076;52.354;4.970;2024-02-16T04:17:16;4.93;;;2.90;;
54171;SDS011;40076;52.354;4.970;2024-02-16T04:19:44;6.93;;;4.00;;
54171;SDS011;40076;52.354;4.970;2024-02-16T04:22:09;5.68;;;3.03;;
54171;SDS011;40076;52.354;4.970;2024-02-16T04:24:37;6.95;;;3.47;;
54171;SDS011;40076;52.354;4.970;2024-02-16T04:27:03;4.82;;;3.00;;
54171;SDS011;40076;52.354;4.970;2024-02-16T04:29:28;6.07;;;3.53;;
54171;SDS011;40076;52.354;4.970;2024-02-16T04:31:56;5.95;;;3.22;;
54171;SDS011;40076;52.354;4.970;2024-02-16T04:34:21;6.78;;;3.35;;
54171;SDS011;40076;52.354;4.970;2024-02-16T04:36:47;6.53;;;2.97;;
54171;SDS011;40076;52.354;4.970;2024-02-16T04:39:12;7.00;;;3.15;;
54171;SDS011;40076;52.354;4.970;2024-02-16T04:41:39;5.60;;;2.78;;
54171;SDS011;40076;52.354;4.970;2024-02-16T04:44:05;7.65;;;3.63;;
54171;SDS011;40076;52.354;4.970;2024-02-16T04:46:30;6.90;;;3.65;;
54171;SDS011;40076;52.354;4.970;2024-02-16T04:48:58;6.28;;;3.20;;
54171;SDS011;40076;52.354;4.970;2024-02-16T04:51:23;5.25;;;2.50;;
54171;SDS011;40076;52.354;4.970;2024-02-16T04:53:49;7.03;;;3.03;;
54171;SDS011;40076;52.354;4.970;2024-02-16T04:56:14;8.48;;;3.47;;
54171;SDS011;40076;52.354;4.970;2024-02-16T04:58:40;5.30;;;3.00;;
54171;SDS011;40076;52.354;4.970;2024-02-16T05:01:06;7.07;;;2.70;;
54171;SDS011;40076;52.354;4.970;2024-02-16T05:03:32;8.13;;;3.67;;
54171;SDS011;40076;52.354;4.970;2024-02-16T05:05:57;5.90;;;2.90;;
54171;SDS011;40076;52.354;4.970;2024-02-16T05:08:22;5.88;;;3.30;;
54171;SDS011;40076;52.354;4.970;2024-02-16T05:10:48;5.35;;;3.35;;
54171;SDS011;40076;52.354;4.970;2024-02-16T05:13:13;7.93;;;3.97;;
54171;SDS011;40076;52.354;4.970;2024-02-16T05:15:39;8.60;;;3.38;;
54171;SDS011;40076;52.354;4.970;2024-02-16T05:18:07;6.63;;;3.60;;
54171;SDS011;40076;52.354;4.970;2024-02-16T05:20:33;7.30;;;3.55;;
54171;SDS011;40076;52.354;4.970;2024-02-16T05:22:58;8.75;;;3.75;;
54171;SDS011;40076;52.354;4.970;2024-02-16T05:25:23;8.18;;;3.20;;
54171;SDS011;40076;52.354;4.970;2024-02-16T05:27:49;7.18;;;3.03;;
54171;SDS011;40076;52.354;4.970;2024-02-16T05:30:14;7.50;;;3.33;;
54171;SDS011;40076;52.354;4.970;2024-02-16T05:32:40;8.68;;;3.55;;
54171;SDS011;40076;52.354;4.970;2024-02-16T05:35:12;7.68;;;3.30;;
54171;SDS011;40076;52.354;4.970;2024-02-16T05:37:46;7.18;;;3.50;;
54171;SDS011;40076;52.354;4.970;2024-02-16T05:40:19;6.38;;;3.63;;
54171;SDS011;40076;52.354;4.970;2024-02-16T05:42:50;7.28;;;3.20;;
54171;SDS011;40076;52.354;4.970;2024-02-16T05:45:16;5.53;;;3.30;;
54171;SDS011;40076;52.354;4.970;2024-02-16T05:47:43;5.55;;;3.55;;
54171;SDS011;40076;52.354;4.970;2024-02-16T05:50:13;6.95;;;3.53;;
54171;SDS011;40076;52.354;4.970;2024-02-16T05:52:40;6.30;;;3.45;;
54171;SDS011;40076;52.354;4.970;2024-02-16T05:55:06;6.10;;;3.33;;
54171;SDS011;40076;52.354;4.970;2024-02-16T05:57:33;7.55;;;3.75;;
54171;SDS011;40076;52.354;4.970;2024-02-16T05:59:58;5.80;;;3.50;;
54171;SDS011;40076;52.354;4.970;2024-02-16T06:02:23;6.10;;;3.72;;
54171;SDS011;40076;52.354;4.970;2024-02-16T06:04:52;11.00;;;4.00;;
54171;SDS011;40076;52.354;4.970;2024-02-16T06:07:20;7.22;;;3.50;;
54171;SDS011;40076;52.354;4.970;2024-02-16T06:09:46;6.30;;;3.63;;
54171;SDS011;40076;52.354;4.970;2024-02-16T06:12:11;7.07;;;3.95;;
54171;SDS011;40076;52.354;4.970;2024-02-16T06:14:37;6.25;;;3.78;;
54171;SDS011;40076;52.354;4.970;2024-02-16T06:17:03;7.47;;;3.63;;
54171;SDS011;40076;52.354;4.970;2024-02-16T06:19:29;7.90;;;3.90;;
54171;SDS011;40076;52.354;4.970;2024-02-16T06:21:54;7.90;;;3.95;;
54171;SDS011;40076;52.354;4.970;2024-02-16T06:24:23;7.15;;;4.15;;
54171;SDS011;40076;52.354;4.970;2024-02-16T06:26:48;7.28;;;4.00;;
54171;SDS011;40076;52.354;4.970;2024-02-16T06:29:17;7.32;;;3.50;;
54171;SDS011;40076;52.354;4.970;2024-02-16T06:31:45;6.18;;;3.80;;
54171;SDS011;40076;52.354;4.970;2024-02-16T06:34:12;12.30;;;4.60;;
54171;SDS011;40076;52.354;4.970;2024-02-16T06:36:40;7.80;;;3.90;;
54171;SDS011;40076;52.354;4.970;2024-02-16T06:39:06;7.05;;;3.90;;
54171;SDS011;40076;52.354;4.970;2024-02-16T06:41:32;7.75;;;4.15;;
54171;SDS011;40076;52.354;4.970;2024-02-16T06:43:59;8.93;;;3.67;;
54171;SDS011;40076;52.354;4.970;2024-02-16T06:46:27;6.57;;;3.95;;
54171;SDS011;40076;52.354;4.970;2024-02-16T06:48:54;8.48;;;4.10;;
54171;SDS011;40076;52.354;4.970;2024-02-16T06:51:22;8.50;;;4.28;;
54171;SDS011;40076;52.354;4.970;2024-02-16T06:53:51;6.93;;;4.40;;
54171;SDS011;40076;52.354;4.970;2024-02-16T06:56:16;8.10;;;4.65;;
54171;SDS011;40076;52.354;4.970;2024-02-16T06:58:43;6.93;;;4.22;;
54171;SDS011;40076;52.354;4.970;2024-02-16T07:01:08;9.88;;;4.43;;
54171;SDS011;40076;52.354;4.970;2024-02-16T07:03:34;6.80;;;4.30;;
54171;SDS011;40076;52.354;4.970;2024-02-16T07:06:02;9.35;;;4.53;;
54171;SDS011;40076;52.354;4.970;2024-02-16T07:08:29;8.55;;;4.70;;
54171;SDS011;40076;52.354;4.970;2024-02-16T07:10:54;8.45;;;4.57;;
54171;SDS011;40076;52.354;4.970;2024-02-16T07:13:21;5.90;;;4.13;;
54171;SDS011;40076;52.354;4.970;2024-02-16T07:15:47;7.45;;;4.38;;
54171;SDS011;40076;52.354;4.970;2024-02-16T07:18:12;8.55;;;4.57;;
54171;SDS011;40076;52.354;4.970;2024-02-16T07:20:38;8.43;;;4.57;;
54171;SDS011;40076;52.354;4.970;2024-02-16T07:23:03;11.02;;;5.05;;
54171;SDS011;40076;52.354;4.970;2024-02-16T07:25:29;13.32;;;5.18;;
54171;SDS011;40076;52.354;4.970;2024-02-16T07:27:54;8.48;;;4.60;;
54171;SDS011;40076;52.354;4.970;2024-02-16T07:30:19;6.85;;;4.85;;
54171;SDS011;40076;52.354;4.970;2024-02-16T07:32:50;10.88;;;4.45;;
54171;SDS011;40076;52.354;4.970;2024-02-16T07:35:17;9.32;;;4.90;;
54171;SDS011;40076;52.354;4.970;2024-02-16T07:37:43;11.02;;;4.68;;
54171;SDS011;40076;52.354;4.970;2024-02-16T07:40:13;10.57;;;5.60;;
54171;SDS011;40076;52.354;4.970;2024-02-16T07:42:40;9.38;;;4.88;;
54171;SDS011;40076;52.354;4.970;2024-02-16T07:45:07;7.70;;;4.97;;
54171;SDS011;40076;52.354;4.970;2024-02-16T07:47:34;10.10;;;5.22;;
54171;SDS011;40076;52.354;4.970;2024-02-16T07:50:03;8.95;;;5.22;;
54171;SDS011;40076;52.354;4.970;2024-02-16T07:52:29;9.27;;;5.88;;
54171;SDS011;40076;52.354;4.970;2024-02-16T07:54:57;8.30;;;5.22;;
54171;SDS011;40076;52.354;4.970;2024-02-16T07:57:23;9.80;;;5.55;;
54171;SDS011;40076;52.354;4.970;2024-02-16T07:59:52;10.00;;;5.50;;
54171;SDS011;40076;52.354;4.970;2024-02-16T08:02:17;11.63;;;5.07;;
54171;SDS011;40076;52.354;4.970;2024-02-16T08:04:46;10.23;;;5.50;;
54171;SDS011;40076;52.354;4.970;2024-02-16T08:07:19;11.40;;;5.13;;
54171;SDS011;40076;52.354;4.970;2024-02-16T08:09:47;9.13;;;5.03;;
54171;SDS011;40076;52.354;4.970;2024-02-16T08:12:18;10.13;;;4.93;;
54171;SDS011;40076;52.354;4.970;2024-02-16T08:14:47;9.85;;;5.40;;
54171;SDS011;40076;52.354;4.970;2024-02-16T08:17:28;10.45;;;5.50;;
54171;SDS011;40076;52.354;4.970;2024-02-16T08:19:54;9.80;;;5.68;;
54171;SDS011;40076;52.354;4.970;2024-02-16T08:22:22;8.18;;;4.97;;
54171;SDS011;40076;52.354;4.970;2024-02-16T08:24:48;8.77;;;5.28;;
54171;SDS011;40076;52.354;4.970;2024-02-16T08:27:15;10.32;;;5.40;;
54171;SDS011;40076;52.354;4.970;2024-02-16T08:29:50;12.60;;;5.45;;
54171;SDS011;40076;52.354;4.970;2024-02-16T08:32:27;8.98;;;4.78;;
54171;SDS011;40076;52.354;4.970;2024-02-16T08:34:58;10.55;;;5.97;;
54171;SDS011;40076;52.354;4.970;2024-02-16T08:37:23;10.15;;;5.63;;
54171;SDS011;40076;52.354;4.970;2024-02-16T08:39:49;10.80;;;5.85;;
54171;SDS011;40076;52.354;4.970;2024-02-16T08:42:17;9.63;;;5.68;;
54171;SDS011;40076;52.354;4.970;2024-02-16T08:44:50;12.23;;;5.70;;
54171;SDS011;40076;52.354;4.970;2024-02-16T08:47:15;12.90;;;6.97;;
54171;SDS011;40076;52.354;4.970;2024-02-16T08:49:41;9.43;;;6.00;;
54171;SDS011;40076;52.354;4.970;2024-02-16T08:52:09;13.63;;;6.88;;
54171;SDS011;40076;52.354;4.970;2024-02-16T08:54:35;8.65;;;5.38;;
54171;SDS011;40076;52.354;4.970;2024-02-16T08:57:01;9.85;;;6.00;;
54171;SDS011;40076;52.354;4.970;2024-02-16T08:59:27;12.50;;;6.32;;
54171;SDS011;40076;52.354;4.970;2024-02-16T09:01:55;9.63;;;5.82;;
54171;SDS011;40076;52.354;4.970;2024-02-16T09:04:20;10.65;;;6.15;;
54171;SDS011;40076;52.354;4.970;2024-02-16T09:06:46;9.25;;;5.97;;
54171;SDS011;40076;52.354;4.970;2024-02-16T09:09:12;9.48;;;6.40;;
54171;SDS011;40076;52.354;4.970;2024-02-16T09:11:41;11.50;;;6.28;;
54171;SDS011;40076;52.354;4.970;2024-02-16T09:14:12;13.23;;;6.47;;
54171;SDS011;40076;52.354;4.970;2024-02-16T09:16:38;10.73;;;6.40;;
54171;SDS011;40076;52.354;4.970;2024-02-16T09:19:05;11.02;;;6.63;;
54171;SDS011;40076;52.354;4.970;2024-02-16T09:21:31;12.15;;;6.60;;
54171;SDS011;40076;52.354;4.970;2024-02-16T09:23:56;12.00;;;6.53;;
54171;SDS011;40076;52.354;4.970;2024-02-16T09:26:26;11.23;;;6.97;;
54171;SDS011;40076;52.354;4.970;2024-02-16T09:28:55;10.48;;;6.22;;
54171;SDS011;40076;52.354;4.970;2024-02-16T09:31:20;9.85;;;6.40;;
54171;SDS011;40076;52.354;4.970;2024-02-16T09:33:46;11.13;;;7.38;;
54171;SDS011;40076;52.354;4.970;2024-02-16T09:36:21;13.32;;;7.13;;
54171;SDS011;40076;52.354;4.970;2024-02-16T09:38:48;11.13;;;7.70;;
54171;SDS011;40076;52.354;4.970;2024-02-16T09:41:13;18.00;;;9.43;;
54171;SDS011;40076;52.354;4.970;2024-02-16T09:43:43;17.50;;;8.95;;
54171;SDS011;40076;52.354;4.970;2024-02-16T09:46:14;18.98;;;9.45;;
54171;SDS011;40076;52.354;4.970;2024-02-16T09:48:47;21.30;;;10.70;;
54171;SDS011;40076;52.354;4.970;2024-02-16T09:51:19;30.38;;;12.88;;
54171;SDS011;40076;52.354;4.970;2024-02-16T09:53:49;27.33;;;12.57;;
54171;SDS011;40076;52.354;4.970;2024-02-16T09:56:26;33.00;;;14.00;;
54171;SDS011;40076;52.354;4.970;2024-02-16T09:58:51;33.70;;;14.48;;
54171;SDS011;40076;52.354;4.970;2024-02-16T10:01:20;30.85;;;13.93;;
54171;SDS011;40076;52.354;4.970;2024-02-16T10:03:46;33.80;;;15.02;;
54171;SDS011;40076;52.354;4.970;2024-02-16T10:06:12;37.17;;;15.63;;
54171;SDS011;40076;52.354;4.970;2024-02-16T10:08:53;44.58;;;15.40;;
54171;SDS011;40076;52.354;4.970;2024-02-16T10:11:20;37.83;;;15.13;;
54171;SDS011;40076;52.354;4.970;2024-02-16T10:17:29;34.10;;;15.00;;
54171;SDS011;40076;52.354;4.970;2024-02-16T10:25:44;28.55;;;13.45;;
54171;SDS011;40076;52.354;4.970;2024-02-16T10:31:34;22.55;;;11.23;;
54171;SDS011;40076;52.354;4.970;2024-02-16T10:37:08;20.67;;;9.65;;
54171;SDS011;40076;52.354;4.970;2024-02-16T10:39:35;17.67;;;9.15;;
54171;SDS011;40076;52.354;4.970;2024-02-16T10:42:08;17.38;;;9.43;;
54171;SDS011;40076;52.354;4.970;2024-02-16T10:44:35;15.70;;;8.10;;
54171;SDS011;40076;52.354;4.970;2024-02-16T10:47:17;13.75;;;7.28;;
54171;SDS011;40076;52.354;4.970;2024-02-16T10:49:45;13.98;;;7.63;;
54171;SDS011;40076;52.354;4.970;2024-02-16T10:52:13;16.38;;;7.95;;
54171;SDS011;40076;52.354;4.970;2024-02-16T10:54:40;14.27;;;7.90;;
54171;SDS011;40076;52.354;4.970;2024-02-16T10:57:08;16.55;;;7.03;;
54171;SDS011;40076;52.354;4.970;2024-02-16T10:59:41;13.85;;;7.22;;
54171;SDS011;40076;52.354;4.970;2024-02-16T11:02:11;12.82;;;7.25;;
54171;SDS011;40076;52.354;4.970;2024-02-16T11:04:37;12.90;;;7.15;;
54171;SDS011;40076;52.354;4.970;2024-02-16T11:07:10;10.93;;;6.30;;
54171;SDS011;40076;52.354;4.970;2024-02-16T11:09:42;12.40;;;6.15;;
54171;SDS011;40076;52.354;4.970;2024-02-16T11:12:08;13.63;;;6.32;;
54171;SDS011;40076;52.354;4.970;2024-02-16T11:17:44;11.27;;;7.13;;
54171;SDS011;40076;52.354;4.970;2024-02-16T11:20:09;14.82;;;9.43;;
54171;SDS011;40076;52.354;4.970;2024-02-16T11:22:37;13.95;;;8.45;;
54171;SDS011;40076;52.354;4.970;2024-02-16T11:25:04;15.20;;;8.98;;
54171;SDS011;40076;52.354;4.970;2024-02-16T11:27:31;12.75;;;8.18;;
54171;SDS011;40076;52.354;4.970;2024-02-16T11:29:58;13.07;;;8.43;;
54171;SDS011;40076;52.354;4.970;2024-02-16T11:35:14;13.80;;;7.63;;
54171;SDS011;40076;52.354;4.970;2024-02-16T11:37:42;14.38;;;8.18;;
54171;SDS011;40076;52.354;4.970;2024-02-16T11:40:12;16.65;;;8.85;;
54171;SDS011;40076;52.354;4.970;2024-02-16T11:42:37;14.50;;;7.65;;
54171;SDS011;40076;52.354;4.970;2024-02-16T11:45:03;13.38;;;7.82;;
54171;SDS011;40076;52.354;4.970;2024-02-16T11:47:29;12.40;;;7.75;;
54171;SDS011;40076;52.354;4.970;2024-02-16T11:50:01;11.57;;;6.53;;
54171;SDS011;40076;52.354;4.970;2024-02-16T11:52:30;10.20;;;6.45;;
54171;SDS011;40076;52.354;4.970;2024-02-16T11:54:57;8.43;;;6.05;;
54171;SDS011;40076;52.354;4.970;2024-02-16T11:57:25;11.35;;;6.22;;
54171;SDS011;40076;52.354;4.970;2024-02-16T11:59:56;10.15;;;4.97;;
54171;SDS011;40076;52.354;4.970;2024-02-16T12:02:31;9.45;;;5.05;;
54171;SDS011;40076;52.354;4.970;2024-02-16T12:05:00;8.13;;;5.45;;
54171;SDS011;40076;52.354;4.970;2024-02-16T12:07:26;8.63;;;4.93;;
54171;SDS011;40076;52.354;4.970;2024-02-16T12:09:58;10.98;;;5.80;;
54171;SDS011;40076;52.354;4.970;2024-02-16T12:12:25;8.93;;;5.70;;
54171;SDS011;40076;52.354;4.970;2024-02-16T12:14:54;9.50;;;5.90;;
54171;SDS011;40076;52.354;4.970;2024-02-16T12:17:21;6.97;;;4.90;;
54171;SDS011;40076;52.354;4.970;2024-02-16T12:19:46;9.85;;;5.10;;
54171;SDS011;40076;52.354;4.970;2024-02-16T12:22:16;8.52;;;5.00;;
54171;SDS011;40076;52.354;4.970;2024-02-16T12:24:45;7.18;;;4.90;;
54171;SDS011;40076;52.354;4.970;2024-02-16T12:27:30;8.48;;;5.03;;
54171;SDS011;40076;52.354;4.970;2024-02-16T12:29:55;9.57;;;4.00;;
54171;SDS011;40076;52.354;4.970;2024-02-16T12:32:23;7.57;;;4.50;;
54171;SDS011;40076;52.354;4.970;2024-02-16T12:34:48;10.48;;;5.22;;
54171;SDS011;40076;52.354;4.970;2024-02-16T12:37:14;8.27;;;5.07;;
54171;SDS011;40076;52.354;4.970;2024-02-16T12:39:39;9.27;;;4.53;;
54171;SDS011;40076;52.354;4.970;2024-02-16T12:42:07;10.88;;;4.80;;
54171;SDS011;40076;52.354;4.970;2024-02-16T12:44:33;8.15;;;4.50;;
54171;SDS011;40076;52.354;4.970;2024-02-16T12:46:58;8.57;;;4.22;;
54171;SDS011;40076;52.354;4.970;2024-02-16T12:49:26;7.68;;;3.92;;
54171;SDS011;40076;52.354;4.970;2024-02-16T12:51:51;8.30;;;3.90;;
54171;SDS011;40076;52.354;4.970;2024-02-16T12:54:17;10.68;;;5.40;;
54171;SDS011;40076;52.354;4.970;2024-02-16T12:56:47;7.65;;;3.85;;
54171;SDS011;40076;52.354;4.970;2024-02-16T12:59:14;8.48;;;4.72;;
54171;SDS011;40076;52.354;4.970;2024-02-16T13:01:40;10.00;;;3.90;;
54171;SDS011;40076;52.354;4.970;2024-02-16T13:04:07;9.75;;;4.53;;
54171;SDS011;40076;52.354;4.970;2024-02-16T13:06:33;11.50;;;4.93;;
54171;SDS011;40076;52.354;4.970;2024-02-16T13:08:58;11.25;;;5.47;;
54171;SDS011;40076;52.354;4.970;2024-02-16T13:11:24;12.02;;;6.18;;
54171;SDS011;40076;52.354;4.970;2024-02-16T13:13:49;12.38;;;5.55;;
54171;SDS011;40076;52.354;4.970;2024-02-16T13:16:16;13.43;;;6.55;;
54171;SDS011;40076;52.354;4.970;2024-02-16T13:18:42;12.98;;;6.57;;
54171;SDS011;40076;52.354;4.970;2024-02-16T13:21:09;14.57;;;7.50;;
54171;SDS011;40076;52.354;4.970;2024-02-16T13:23:37;13.68;;;6.90;;
54171;SDS011;40076;52.354;4.970;2024-02-16T13:26:02;12.20;;;6.97;;
54171;SDS011;40076;52.354;4.970;2024-02-16T13:28:29;11.65;;;6.72;;
54171;SDS011;40076;52.354;4.970;2024-02-16T13:34:21;13.95;;;7.07;;
54171;SDS011;40076;52.354;4.970;2024-02-16T13:36:47;11.30;;;6.80;;
54171;SDS011;40076;52.354;4.970;2024-02-16T13:39:15;11.20;;;6.65;;
54171;SDS011;40076;52.354;4.970;2024-02-16T13:41:41;11.60;;;6.10;;
54171;SDS011;40076;52.354;4.970;2024-02-16T13:44:09;10.23;;;6.00;;
54171;SDS011;40076;52.354;4.970;2024-02-16T13:46:37;9.32;;;6.00;;
54171;SDS011;40076;52.354;4.970;2024-02-16T13:49:03;9.77;;;5.78;;
54171;SDS011;40076;52.354;4.970;2024-02-16T13:51:28;11.65;;;6.25;;
54171;SDS011;40076;52.354;4.970;2024-02-16T13:53:54;11.07;;;6.25;;
54171;SDS011;40076;52.354;4.970;2024-02-16T13:56:19;13.32;;;7.50;;
54171;SDS011;40076;52.354;4.970;2024-02-16T13:58:44;11.75;;;6.85;;
54171;SDS011;40076;52.354;4.970;2024-02-16T14:01:12;11.15;;;6.93;;
54171;SDS011;40076;52.354;4.970;2024-02-16T14:03:40;12.32;;;7.43;;
54171;SDS011;40076;52.354;4.970;2024-02-16T14:06:06;12.40;;;7.90;;
54171;SDS011;40076;52.354;4.970;2024-02-16T14:08:34;18.15;;;9.68;;
54171;SDS011;40076;52.354;4.970;2024-02-16T14:11:01;21.58;;;10.10;;
54171;SDS011;40076;52.354;4.970;2024-02-16T14:13:27;16.10;;;10.45;;
54171;SDS011;40076;52.354;4.970;2024-02-16T14:15:52;18.85;;;10.10;;
54171;SDS011;40076;52.354;4.970;2024-02-16T14:18:17;16.50;;;10.55;;
54171;SDS011;40076;52.354;4.970;2024-02-16T14:20:43;16.15;;;10.07;;
54171;SDS011;40076;52.354;4.970;2024-02-16T14:23:08;16.00;;;9.68;;
54171;SDS011;40076;52.354;4.970;2024-02-16T14:25:35;16.80;;;9.95;;
54171;SDS011;40076;52.354;4.970;2024-02-16T14:28:07;20.73;;;10.88;;
54171;SDS011;40076;52.354;4.970;2024-02-16T14:30:33;15.65;;;10.20;;
54171;SDS011;40076;52.354;4.970;2024-02-16T14:32:58;17.75;;;10.80;;
54171;SDS011;40076;52.354;4.970;2024-02-16T14:35:24;16.58;;;10.68;;
54171;SDS011;40076;52.354;4.970;2024-02-16T14:37:50;14.90;;;9.70;;
54171;SDS011;40076;52.354;4.970;2024-02-16T14:40:17;17.73;;;10.68;;
54171;SDS011;40076;52.354;4.970;2024-02-16T14:42:43;22.50;;;11.25;;
54171;SDS011;40076;52.354;4.970;2024-02-16T14:45:09;21.23;;;11.25;;
54171;SDS011;40076;52.354;4.970;2024-02-16T14:47:35;17.70;;;11.00;;
54171;SDS011;40076;52.354;4.970;2024-02-16T14:50:02;15.55;;;10.20;;
54171;SDS011;40076;52.354;4.970;2024-02-16T14:52:29;16.73;;;11.60;;
54171;SDS011;40076;52.354;4.970;2024-02-16T14:54:54;16.02;;;10.18;;
54171;SDS011;40076;52.354;4.970;2024-02-16T14:57:21;17.02;;;10.77;;
54171;SDS011;40076;52.354;4.970;2024-02-16T14:59:50;19.13;;;11.30;;
54171;SDS011;40076;52.354;4.970;2024-02-16T15:02:20;16.73;;;10.50;;
54171;SDS011;40076;52.354;4.970;2024-02-16T15:04:48;19.38;;;11.25;;